Terminal Aerodrome Forecast
Issued by NWS

Current Version | Previous Version | Graphics & Text | Print | Product List | Glossary On
Versions: 1 2 3 4 5 6 7 8 9 10 11 12 13 14 15 16
000
FTUS41 KRNK 151729
TAFLWB
TAF
KLWB 151729Z 1518/1618 00000KT P6SM -SHRA SCT008 OVC025
      TEMPO 1518/1522 BKN008
     FM152300 VRB03KT P6SM SCT030
     FM160400 00000KT 4SM BR SCT110
     FM160600 00000KT 1SM BR FEW250
     FM161400 00000KT P6SM FEW250=

USA.gov is the U.S. government's official web portal to all federal, state and local government web resources and services.